Time;durP1;ratioP1;P1;durP2;ratioP2;P2;SDS_P1;SDS_P2;PMS_P1;PMS_P2;Temp;Humidity;BMP_temperature;BMP_pressure;BME280_temperature;BME280_humidity;BME280_pressure;Samples;Min_cycle;Max_cycle;Signal;HPM_P1;HPM_P2
2022/04/10 07:33:37;;;;;;;4.90;2.90;;;;;;;13.29;46.56;101473.16;5066187;28;20390;-61
2022/04/10 07:36:04;;;;;;;5.60;2.88;;;;;;;13.37;46.88;101481.53;5066013;28;20087;-61
2022/04/10 07:38:31;;;;;;;4.55;3.08;;;;;;;13.39;46.57;101477.00;5065778;28;20444;-63
2022/04/10 07:40:57;;;;;;;5.22;2.95;;;;;;;13.52;46.14;101480.66;5065865;28;20067;-61
2022/04/10 07:43:24;;;;;;;4.85;2.88;;;;;;;13.57;46.10;101487.44;5066005;28;20048;-62
2022/04/10 07:48:42;;;;;;;5.50;2.70;;;;;;;13.86;44.68;101478.69;5048690;28;20080;-61
2022/04/10 07:51:09;;;;;;;3.00;2.70;;;;;;;13.93;44.46;101479.19;5045763;28;20041;-61
2022/04/10 07:53:36;;;;;;;5.00;2.88;;;;;;;14.04;44.13;101483.81;5046128;28;20445;-61
2022/04/10 07:56:02;;;;;;;4.15;2.85;;;;;;;14.27;43.51;101495.66;5064519;28;20096;-63
2022/04/10 07:58:29;;;;;;;6.43;2.92;;;;;;;14.28;43.29;101489.41;5065135;28;20120;-62
2022/04/10 08:00:55;;;;;;;3.47;2.60;;;;;;;14.35;42.97;101493.38;5065428;28;20492;-62
2022/04/10 08:03:24;;;;;;;3.92;2.90;;;;;;;14.52;42.18;101491.50;5062872;28;20538;-62
2022/04/10 08:05:51;;;;;;;4.38;2.67;;;;;;;14.69;41.85;101496.63;5062727;28;20052;-62
2022/04/10 08:08:17;;;;;;;4.47;2.70;;;;;;;14.78;41.50;101496.97;5058815;28;20869;-62
2022/04/10 08:10:44;;;;;;;4.60;2.70;;;;;;;14.93;40.87;101492.53;5063951;28;20049;-62
2022/04/10 08:13:11;;;;;;;3.65;2.20;;;;;;;15.04;40.55;101499.81;5065029;28;20049;-62
2022/04/10 08:15:37;;;;;;;3.88;2.33;;;;;;;15.15;40.12;101495.53;5065197;28;20048;-63
2022/04/10 08:18:09;;;;;;;3.35;2.20;;;;;;;15.42;39.77;101483.25;5062096;28;20045;-62
2022/04/10 08:20:36;;;;;;;3.42;2.40;;;;;;;15.38;38.97;101484.41;5062940;28;20041;-62
2022/04/10 08:23:03;;;;;;;4.40;2.10;;;;;;;15.59;38.59;101490.94;5064536;28;20068;-61
2022/04/10 08:25:30;;;;;;;3.63;2.80;;;;;;;15.76;38.11;101492.47;5064893;28;20132;-61
2022/04/10 08:27:57;;;;;;;7.47;2.38;;;;;;;15.98;37.36;101491.06;5065225;28;20124;-62
2022/04/10 08:30:23;;;;;;;3.08;1.90;;;;;;;16.08;37.17;101496.56;5065039;28;20366;-65
2022/04/10 08:32:50;;;;;;;4.43;1.52;;;;;;;16.14;36.29;101497.00;5064857;28;20584;-63
2022/04/10 08:35:16;;;;;;;3.60;1.70;;;;;;;16.27;35.35;101506.75;5065078;28;20041;-62
2022/04/10 08:37:43;;;;;;;2.60;1.70;;;;;;;16.32;34.85;101502.00;5065123;28;20088;-62
2022/04/10 08:40:11;;;;;;;1.75;1.35;;;;;;;16.46;34.44;101509.81;5060961;28;20072;-61
2022/04/10 08:42:38;;;;;;;3.45;1.83;;;;;;;16.59;33.66;101514.28;5062205;28;20048;-62
2022/04/10 08:45:09;;;;;;;2.50;1.67;;;;;;;16.74;33.13;101507.88;5050888;28;20096;-61
2022/04/10 08:47:39;;;;;;;2.65;1.50;;;;;;;16.83;33.06;101514.34;5051796;28;20118;-61
2022/04/10 08:50:07;;;;;;;2.75;1.70;;;;;;;16.81;32.59;101513.59;5051452;28;20481;-63
2022/04/10 08:52:34;;;;;;;2.63;1.70;;;;;;;17.11;32.41;101510.59;5051363;28;20060;-61
2022/04/10 08:55:01;;;;;;;3.40;1.38;;;;;;;17.22;31.88;101517.78;5051413;28;20052;-61
2022/04/10 08:57:28;;;;;;;4.88;1.45;;;;;;;17.37;31.98;101510.53;5049396;28;20489;-61
2022/04/10 08:59:58;;;;;;;7.95;1.30;;;;;;;17.27;31.75;101522.78;5051190;28;20252;-62
2022/04/10 09:02:25;;;;;;;1.60;0.95;;;;;;;17.50;31.93;101510.47;5051207;28;20041;-61
2022/04/10 09:04:53;;;;;;;3.78;1.30;;;;;;;17.61;31.16;101515.81;5051250;28;20047;-62
2022/04/10 09:07:21;;;;;;;3.72;1.05;;;;;;;17.65;30.07;101520.88;5051083;28;20048;-64
2022/04/10 09:09:57;;;;;;;2.95;1.00;;;;;;;17.92;29.19;101523.31;5051125;28;20596;-63
2022/04/10 09:12:24;;;;;;;2.40;0.93;;;;;;;17.94;29.09;101524.91;5049414;28;20460;-62
2022/04/10 09:15:02;;;;;;;2.00;1.35;;;;;;;18.02;28.39;101513.69;5031407;28;20045;-62
2022/04/10 09:17:29;;;;;;;2.13;1.20;;;;;;;18.10;28.35;101519.25;5031431;28;20405;-62
2022/04/10 09:19:58;;;;;;;2.63;1.10;;;;;;;18.01;28.57;101521.78;5031319;28;20077;-62
2022/04/10 09:22:36;;;;;;;4.53;1.40;;;;;;;18.15;27.87;101526.88;5031223;28;20053;-62
2022/04/10 09:25:03;;;;;;;1.50;1.15;;;;;;;18.37;27.63;101526.09;5030947;28;20045;-61
2022/04/10 09:27:37;;;;;;;1.27;1.00;;;;;;;18.65;27.03;101528.41;5030852;28;20426;-62
2022/04/10 09:30:05;;;;;;;1.67;0.98;;;;;;;18.69;26.79;101527.19;5030519;28;20136;-63
2022/04/10 09:32:42;;;;;;;6.97;1.13;;;;;;;18.89;26.14;101515.84;5030553;28;20140;-61
2022/04/10 09:35:11;;;;;;;3.90;1.00;;;;;;;18.89;25.71;101523.81;5030604;28;20049;-62
2022/04/10 09:37:43;;;;;;;2.70;0.70;;;;;;;19.10;25.30;101512.44;5030827;28;20045;-62
2022/04/10 09:40:28;;;;;;;0.85;0.60;;;;;;;19.24;24.83;101512.16;5030496;28;20077;-61
2022/04/10 09:43:10;;;;;;;2.83;0.82;;;;;;;19.29;24.30;101509.13;5030986;28;20058;-62
2022/04/10 09:45:41;;;;;;;1.23;0.80;;;;;;;19.35;24.65;101513.09;5032179;28;20485;-62
2022/04/10 09:48:20;;;;;;;6.03;1.00;;;;;;;19.49;24.72;101502.19;5030428;28;20080;-62
2022/04/10 09:50:49;;;;;;;6.85;1.52;;;;;;;19.51;24.66;101507.38;5030529;28;20046;-62
2022/04/10 09:53:15;;;;;;;1.40;0.60;;;;;;;19.54;25.01;101502.66;5030446;28;20116;-63
2022/04/10 09:55:43;;;;;;;1.52;0.95;;;;;;;19.66;24.67;101505.25;5029430;28;20064;-62
2022/04/10 09:58:13;;;;;;;2.78;0.93;;;;;;;19.83;23.94;101509.19;5030486;28;20077;-62
2022/04/10 10:00:43;;;;;;;2.53;0.70;;;;;;;19.96;23.49;101503.69;5030268;28;20057;-62
2022/04/10 10:03:10;;;;;;;0.70;0.40;;;;;;;19.94;22.50;101503.81;5046111;28;20446;-67
2022/04/10 10:05:37;;;;;;;1.20;0.65;;;;;;;20.15;21.70;101497.63;5049602;28;20485;-62
2022/04/10 10:08:06;;;;;;;2.13;0.80;;;;;;;20.16;21.17;101488.66;5049491;28;20079;-64
2022/04/10 10:10:37;;;;;;;0.82;0.70;;;;;;;20.27;21.38;101496.59;5049714;28;20069;-63
2022/04/10 10:13:05;;;;;;;1.55;0.85;;;;;;;20.36;20.59;101489.63;5049509;28;20958;-63
2022/04/10 10:15:37;;;;;;;1.77;0.95;;;;;;;20.17;20.62;101483.19;5049581;28;20098;-68
2022/04/10 10:18:07;;;;;;;1.67;0.70;;;;;;;20.37;20.35;101483.31;5047609;28;20562;-64
2022/04/10 10:20:34;;;;;;;2.03;0.95;;;;;;;20.59;19.96;101482.28;5049752;28;20118;-66
2022/04/10 10:23:03;;;;;;;1.88;0.80;;;;;;;20.70;19.76;101478.69;5049648;28;20559;-63
2022/04/10 10:25:39;;;;;;;1.77;1.08;;;;;;;21.01;19.94;101476.81;5049311;28;20565;-62
2022/04/10 10:28:20;;;;;;;1.20;0.70;;;;;;;21.26;19.74;101487.13;5047627;28;20049;-63
2022/04/10 10:31:08;;;;;;;4.13;0.80;;;;;;;20.94;20.60;101483.69;5049151;28;20550;-66
2022/04/10 10:33:38;;;;;;;2.83;0.88;;;;;;;20.82;20.72;101479.44;5004425;28;20050;-63
2022/04/10 10:36:08;;;;;;;1.33;1.00;;;;;;;20.97;19.83;101486.06;4990509;28;20050;-63
2022/04/10 10:38:35;;;;;;;1.85;1.17;;;;;;;21.15;19.46;101474.72;4990762;28;20124;-63
2022/04/10 10:41:17;;;;;;;1.33;0.90;;;;;;;21.14;19.05;101473.91;4989855;28;20082;-63
2022/04/10 10:43:45;;;;;;;1.42;0.88;;;;;;;21.37;18.94;101462.97;4990358;28;20092;-67
2022/04/10 10:46:28;;;;;;;2.42;0.90;;;;;;;21.52;18.66;101461.53;4990068;28;20070;-62
2022/04/10 10:49:16;;;;;;;0.75;0.40;;;;;;;21.64;18.15;101456.09;4990127;28;20064;-63
2022/04/10 10:51:45;;;;;;;1.25;0.73;;;;;;;21.95;17.82;101456.75;4991572;28;20406;-62
2022/04/10 10:54:15;;;;;;;1.63;0.95;;;;;;;22.07;17.72;101452.06;4989264;28;20451;-63
2022/04/10 10:56:46;;;;;;;1.27;1.02;;;;;;;22.14;17.63;101458.53;4990190;28;20370;-63
2022/04/10 10:59:34;;;;;;;1.10;0.80;;;;;;;21.98;17.31;101448.44;4989961;28;20514;-62
2022/04/10 11:02:11;;;;;;;3.20;0.82;;;;;;;22.37;17.46;101454.66;4989893;28;20046;-63
2022/04/10 11:04:58;;;;;;;0.63;0.57;;;;;;;22.39;17.13;101452.69;4989789;28;20093;-63
2022/04/10 11:07:28;;;;;;;3.42;1.80;;;;;;;22.28;17.09;101451.88;4996911;28;20066;-63
2022/04/10 11:09:58;;;;;;;1.15;1.02;;;;;;;22.20;17.41;101451.75;4994655;28;20131;-63
2022/04/10 11:12:37;;;;;;;2.55;1.63;;;;;;;22.08;17.95;101445.75;5007945;28;20080;-62
2022/04/10 11:15:17;;;;;;;1.40;1.08;;;;;;;22.33;18.01;101452.25;4989823;28;20133;-62
2022/04/10 11:17:43;;;;;;;2.80;1.30;;;;;;;22.40;18.34;101439.16;4989731;28;20108;-61
2022/04/10 11:20:12;;;;;;;1.85;1.10;;;;;;;22.30;18.37;101443.69;4989668;28;20043;-64
2022/04/10 11:22:47;;;;;;;3.80;1.10;;;;;;;21.98;18.63;101429.72;4988577;28;20057;-63
2022/04/10 11:25:18;;;;;;;2.08;1.38;;;;;;;21.97;18.44;101436.03;4991262;28;20074;-63
2022/04/10 11:28:12;;;;;;;1.58;1.25;;;;;;;22.23;18.32;101434.56;4989514;28;20133;-62
2022/04/10 11:30:45;;;;;;;1.20;1.10;;;;;;;22.45;17.92;101436.06;4988657;28;20078;-63
2022/04/10 11:33:13;;;;;;;1.48;0.90;;;;;;;22.52;18.08;101438.97;5022861;28;20516;-64
2022/04/10 11:35:55;;;;;;;2.70;1.23;;;;;;;22.56;17.95;101429.66;5048756;28;20052;-63
2022/04/10 11:38:24;;;;;;;0.98;0.90;;;;;;;22.68;17.48;101436.50;5031540;28;20080;-63
2022/04/10 11:40:52;;;;;;;2.55;1.30;;;;;;;22.83;17.78;101434.16;5034527;28;20486;-62
2022/04/10 11:43:21;;;;;;;4.50;1.20;;;;;;;23.07;17.53;101430.91;5028638;28;20489;-63
2022/04/10 11:45:50;;;;;;;3.30;1.30;;;;;;;22.91;17.73;101420.84;5045912;28;20136;-62
2022/04/10 11:48:18;;;;;;;2.33;1.00;;;;;;;23.41;17.22;101415.97;5030909;28;20099;-62
2022/04/10 11:50:44;;;;;;;3.05;0.98;;;;;;;23.02;17.48;101414.44;5028838;28;20077;-63
2022/04/10 11:53:17;;;;;;;2.30;1.00;;;;;;;23.14;17.39;101415.06;5028527;28;20053;-67
2022/04/10 11:55:48;;;;;;;2.10;1.15;;;;;;;23.38;17.36;101410.94;5028243;28;20049;-65
2022/04/10 11:58:16;;;;;;;1.00;0.90;;;;;;;23.68;17.14;101411.50;5028493;28;20045;-63
2022/04/10 12:00:45;;;;;;;1.33;0.98;;;;;;;23.78;17.41;101406.84;5036732;28;20453;-64
2022/04/10 12:03:12;;;;;;;2.42;1.13;;;;;;;23.60;17.33;101399.72;5045433;28;20087;-63
2022/04/10 12:05:40;;;;;;;2.42;1.20;;;;;;;23.50;17.67;101400.81;5044855;28;20048;-62
2022/04/10 12:08:07;;;;;;;3.00;1.05;;;;;;;23.46;17.54;101401.13;5047179;28;20565;-62
2022/04/10 12:10:34;;;;;;;0.82;0.80;;;;;;;23.57;17.52;101389.31;5045326;28;20102;-63
2022/04/10 12:13:02;;;;;;;1.35;1.00;;;;;;;23.57;17.62;101386.63;5047535;28;20409;-63
2022/04/10 12:15:28;;;;;;;1.90;0.90;;;;;;;23.68;17.45;101387.38;5047288;28;20072;-63
2022/04/10 12:18:07;;;;;;;2.15;1.10;;;;;;;23.28;17.70;101387.75;5045981;28;20052;-62
2022/04/10 12:20:36;;;;;;;13.55;3.60;;;;;;;23.62;17.71;101392.34;5043180;28;20045;-61
2022/04/10 12:23:22;;;;;;;2.65;1.30;;;;;;;23.52;18.44;101386.25;5051797;28;20505;-61
2022/04/10 12:25:49;;;;;;;;;;;;;;;23.19;18.26;101393.22;5036936;28;20041;-61
2022/04/10 12:28:17;;;;;;;1.60;1.02;;;;;;;23.47;18.33;101391.25;5051829;28;19935;-62
2022/04/10 12:30:44;;;;;;;1.95;0.90;;;;;;;23.55;18.00;101390.47;5052050;28;20135;-63
2022/04/10 12:33:12;;;;;;;2.17;0.98;;;;;;;23.29;17.90;101384.09;5051447;28;20139;-63
2022/04/10 12:35:40;;;;;;;3.33;1.25;;;;;;;23.11;18.39;101380.56;5043496;28;20462;-69
2022/04/10 12:38:07;;;;;;;4.43;1.20;;;;;;;23.31;18.16;101379.44;5036715;28;20408;-63
2022/04/10 12:40:37;;;;;;;3.20;1.20;;;;;;;23.25;18.62;101377.34;5051700;28;20069;-62
2022/04/10 12:43:05;;;;;;;4.20;1.10;;;;;;;23.37;18.73;101385.16;5051434;28;20056;-62
2022/04/10 12:45:34;;;;;;;4.20;1.52;;;;;;;23.10;18.91;101386.91;5051781;28;20049;-62
2022/04/10 12:48:01;;;;;;;2.30;0.88;;;;;;;23.25;18.70;101366.66;5051663;28;20060;-62
2022/04/10 12:50:29;;;;;;;1.88;1.17;;;;;;;23.15;18.67;101366.72;5051796;28;20461;-61
2022/04/10 12:52:55;;;;;;;1.40;1.00;;;;;;;23.17;18.50;101371.91;5050639;28;20049;-61
2022/04/10 12:55:23;;;;;;;1.73;0.90;;;;;;;23.39;18.08;101362.56;5031142;28;20057;-61
2022/04/10 12:57:52;;;;;;;4.13;1.30;;;;;;;23.13;18.11;101366.03;5031358;28;20137;-62
2022/04/10 13:00:31;;;;;;;4.28;1.10;;;;;;;23.33;18.06;101360.50;5031428;28;20046;-61
2022/04/10 13:03:19;;;;;;;8.25;1.33;;;;;;;23.16;17.99;101359.56;5031443;28;20474;-62
2022/04/10 13:06:02;;;;;;;6.72;1.45;;;;;;;22.78;18.68;101367.72;5031372;28;20057;-62
2022/04/10 13:08:39;;;;;;;4.88;1.50;;;;;;;22.82;18.94;101369.06;5031527;28;20052;-63
2022/04/10 13:11:07;;;;;;;2.65;1.20;;;;;;;22.80;19.26;101352.34;5031299;28;20064;-63
2022/04/10 13:14:00;;;;;;;4.78;1.45;;;;;;;22.87;19.20;101341.00;5031034;28;20057;-62
2022/04/10 13:16:33;;;;;;;2.72;1.10;;;;;;;22.61;19.37;101352.47;5044945;28;20052;-66
2022/04/10 13:19:01;;;;;;;5.40;1.17;;;;;;;22.69;19.38;101359.75;5050987;28;20381;-68
2022/04/10 13:21:28;;;;;;;2.88;1.00;;;;;;;22.73;19.04;101350.41;5050987;28;20497;-62
2022/04/10 13:23:55;;;;;;;2.50;0.90;;;;;;;22.79;18.93;101344.44;5051364;28;20053;-61
2022/04/10 13:26:26;;;;;;;1.95;1.00;;;;;;;22.91;19.02;101340.56;5050873;28;20053;-61
2022/04/10 13:28:53;;;;;;;1.48;0.80;;;;;;;22.58;19.08;101345.59;5051119;28;20049;-62
2022/04/10 13:31:20;;;;;;;1.77;1.17;;;;;;;22.74;18.50;101342.25;5034727;28;20072;-62
2022/04/10 13:33:48;;;;;;;4.00;1.17;;;;;;;22.33;18.72;101345.31;5062542;28;20060;-62
2022/04/10 13:36:14;;;;;;;4.43;1.50;;;;;;;22.71;18.57;101339.88;5031006;28;20049;-62
2022/04/10 13:38:41;;;;;;;10.57;1.60;;;;;;;22.97;18.31;101326.56;5031123;28;20464;-61
2022/04/10 13:41:08;;;;;;;15.75;3.45;;;;;;;23.10;18.16;101336.03;5030771;28;20052;-61
2022/04/10 13:43:35;;;;;;;5.43;1.90;;;;;;;22.92;18.42;101328.00;5030919;28;20101;-61
2022/04/10 13:46:01;;;;;;;1.63;0.95;;;;;;;22.66;18.43;101320.75;5030711;28;20099;-62
2022/04/10 13:48:28;;;;;;;7.60;1.55;;;;;;;22.60;18.91;101332.06;5032817;28;20045;-61
2022/04/10 13:50:55;;;;;;;2.97;1.15;;;;;;;22.63;18.77;101324.56;5030286;28;20053;-62
2022/04/10 13:53:22;;;;;;;5.80;1.00;;;;;;;22.82;18.38;101320.09;5030382;28;20559;-62
2022/04/10 13:55:49;;;;;;;5.50;1.05;;;;;;;22.71;18.83;101314.97;5030611;28;20056;-61
2022/04/10 13:58:16;;;;;;;1.83;0.85;;;;;;;22.92;18.83;101312.81;5030327;28;20049;-60
2022/04/10 14:00:42;;;;;;;2.55;0.95;;;;;;;22.88;19.08;101319.47;5030475;28;20068;-62
2022/04/10 14:03:09;;;;;;;5.18;1.02;;;;;;;22.86;18.97;101326.81;5030170;28;20053;-62
2022/04/10 14:05:36;;;;;;;35.28;2.63;;;;;;;22.76;18.52;101320.69;5030056;28;20080;-62
2022/04/10 14:08:02;;;;;;;2.85;1.20;;;;;;;22.56;18.88;101322.66;5030302;28;20075;-62
2022/04/10 14:10:29;;;;;;;3.58;0.90;;;;;;;22.61;18.68;101326.59;5030355;28;20068;-62
2022/04/10 14:12:56;;;;;;;2.05;0.90;;;;;;;22.16;18.69;101332.72;5043089;28;20045;-61
2022/04/10 14:15:23;;;;;;;2.13;0.90;;;;;;;22.09;18.38;101331.63;5049657;28;20072;-63
2022/04/10 14:17:56;;;;;;;15.75;1.75;;;;;;;22.05;18.61;101332.94;5049960;28;20152;-62
2022/04/10 14:20:23;;;;;;;5.65;1.42;;;;;;;22.17;18.77;101331.75;5050081;28;20128;-68
2022/04/10 14:22:50;;;;;;;11.27;2.25;;;;;;;22.06;18.95;101322.06;5048914;28;20049;-62
2022/04/10 14:25:17;;;;;;;2.83;1.15;;;;;;;22.13;19.12;101325.84;5049464;28;20052;-62
2022/04/10 14:27:43;;;;;;;1.67;1.10;;;;;;;21.91;19.00;101320.88;5049740;28;20076;-62
2022/04/10 14:30:10;;;;;;;2.65;1.30;;;;;;;21.73;19.08;101320.81;5048935;28;20044;-62
2022/04/10 14:32:39;;;;;;;1.30;0.90;;;;;;;21.69;18.99;101321.09;5039824;28;20057;-62
2022/04/10 14:35:06;;;;;;;2.25;1.00;;;;;;;21.55;19.13;101321.56;5031253;28;20555;-65
2022/04/10 14:37:33;;;;;;;4.13;1.30;;;;;;;21.67;19.00;101328.44;5028224;28;20045;-62
2022/04/10 14:40:00;;;;;;;1.52;1.17;;;;;;;21.74;18.93;101322.50;5028968;28;20052;-62
2022/04/10 14:42:28;;;;;;;1.50;0.98;;;;;;;21.75;18.87;101330.38;5028624;28;20544;-63
2022/04/10 14:44:55;;;;;;;1.10;1.00;;;;;;;21.84;18.63;101317.97;5029713;28;20453;-62
2022/04/10 14:47:21;;;;;;;1.58;1.05;;;;;;;21.73;18.66;101327.00;5029261;28;20057;-63
2022/04/10 14:49:48;;;;;;;1.40;1.20;;;;;;;21.58;18.18;101323.13;5029180;28;20532;-67
2022/04/10 14:52:14;;;;;;;1.20;1.10;;;;;;;21.33;18.50;101323.56;5028960;28;20569;-62
2022/04/10 14:54:41;;;;;;;2.25;1.08;;;;;;;21.42;18.06;101321.00;5032644;28;20049;-62
2022/04/10 14:57:08;;;;;;;2.35;0.95;;;;;;;21.43;18.08;101315.50;5048824;28;20489;-67
2022/04/10 14:59:34;;;;;;;1.42;1.20;;;;;;;21.42;18.34;101313.84;5049129;28;20072;-62
2022/04/10 15:02:04;;;;;;;2.28;0.93;;;;;;;21.02;18.56;101314.88;5049215;28;20056;-66
2022/04/10 15:04:31;;;;;;;1.75;1.27;;;;;;;21.04;18.51;101318.28;5049243;28;20402;-63
2022/04/10 15:06:57;;;;;;;2.97;1.00;;;;;;;20.84;18.86;101320.09;5049096;28;20048;-67
2022/04/10 15:09:24;;;;;;;1.30;1.20;;;;;;;20.96;18.43;101320.78;5048808;28;20501;-64
2022/04/10 15:11:50;;;;;;;1.42;1.20;;;;;;;20.84;18.36;101320.94;5043953;28;20045;-67
2022/04/10 15:14:17;;;;;;;1.42;1.17;;;;;;;20.67;18.72;101317.09;5028980;28;20576;-67
2022/04/10 15:16:44;;;;;;;1.30;1.20;;;;;;;20.56;18.54;101314.56;5029025;28;20140;-66
2022/04/10 15:19:13;;;;;;;1.73;1.10;;;;;;;20.49;18.71;101311.63;5029082;28;20068;-65
2022/04/10 15:21:39;;;;;;;1.38;1.05;;;;;;;20.57;18.52;101310.94;5028985;28;20060;-67
2022/04/10 15:24:06;;;;;;;1.13;0.90;;;;;;;20.51;18.81;101314.97;5028976;28;20081;-67
2022/04/10 15:26:33;;;;;;;1.60;1.13;;;;;;;20.44;18.82;101313.81;5029057;28;20053;-67
2022/04/10 15:28:59;;;;;;;1.70;0.90;;;;;;;20.41;19.01;101324.78;5029055;28;20088;-67
2022/04/10 15:31:26;;;;;;;1.40;1.10;;;;;;;20.15;18.83;101329.75;5027926;28;20452;-67
2022/04/10 15:33:53;;;;;;;1.35;0.90;;;;;;;20.16;18.90;101323.44;5028810;28;20473;-67
2022/04/10 15:36:19;;;;;;;1.52;1.20;;;;;;;20.09;19.29;101322.28;5028969;28;20391;-66
2022/04/10 15:38:46;;;;;;;2.70;1.00;;;;;;;19.98;18.92;101333.91;5028964;28;20414;-67
2022/04/10 15:41:13;;;;;;;1.75;0.90;;;;;;;19.77;19.07;101332.13;5028591;28;20048;-67
2022/04/10 15:43:40;;;;;;;1.55;0.98;;;;;;;19.67;18.91;101329.38;5028568;28;20403;-67
2022/04/10 15:46:06;;;;;;;1.00;0.90;;;;;;;19.68;18.97;101328.41;5028100;28;20054;-66
2022/04/10 15:48:37;;;;;;;1.25;0.80;;;;;;;19.60;18.78;101336.22;5028776;28;20049;-66
2022/04/10 15:51:04;;;;;;;1.85;0.88;;;;;;;19.69;19.03;101335.44;5028603;28;20058;-66
2022/04/10 15:53:31;;;;;;;1.00;0.90;;;;;;;19.49;19.33;101338.94;5029691;28;20484;-67
2022/04/10 15:55:58;;;;;;;1.75;0.90;;;;;;;19.53;19.27;101338.56;5032319;28;20054;-66
2022/04/10 15:58:24;;;;;;;1.20;1.00;;;;;;;19.38;19.66;101346.03;5032640;28;20053;-67
2022/04/10 16:00:53;;;;;;;1.00;0.95;;;;;;;19.29;19.69;101348.59;5032631;28;20068;-62
2022/04/10 16:03:21;;;;;;;1.42;0.98;;;;;;;19.17;19.89;101338.06;5032025;28;20038;-62
2022/04/10 16:05:47;;;;;;;2.97;0.98;;;;;;;19.11;19.88;101337.69;5032232;28;20391;-63
2022/04/10 16:08:14;;;;;;;2.45;0.90;;;;;;;19.00;19.72;101333.28;5032424;28;20104;-62
2022/04/10 16:10:41;;;;;;;1.55;1.23;;;;;;;18.86;20.04;101343.22;5032306;28;20077;-66
2022/04/10 16:13:07;;;;;;;1.40;1.02;;;;;;;18.80;19.83;101342.88;5032305;28;20474;-62
2022/04/10 16:15:34;;;;;;;1.40;1.00;;;;;;;18.63;19.57;101342.44;5032120;28;20049;-62
2022/04/10 16:18:01;;;;;;;4.78;1.80;;;;;;;18.56;19.84;101343.91;5032020;28;20056;-63
2022/04/10 16:20:28;;;;;;;1.48;0.90;;;;;;;18.44;20.17;101349.25;5031980;28;20045;-62
2022/04/10 16:22:55;;;;;;;1.13;1.00;;;;;;;18.37;20.37;101358.69;5031963;28;20049;-62
2022/04/10 16:25:21;;;;;;;1.15;0.88;;;;;;;18.32;20.12;101354.69;5032390;28;20091;-62
2022/04/10 16:30:34;;;;;;;0.80;0.80;;;;;;;18.19;20.44;101357.50;5032026;28;20049;-62
2022/04/10 16:33:07;;;;;;;1.10;1.00;;;;;;;18.16;20.39;101361.25;5031907;28;20058;-62
2022/04/10 16:35:40;;;;;;;1.00;0.90;;;;;;;18.17;20.37;101364.72;5031918;28;20136;-65
2022/04/10 16:38:10;;;;;;;2.10;0.70;;;;;;;18.23;21.11;101366.91;5034057;28;20120;-62
2022/04/10 16:40:38;;;;;;;2.33;0.75;;;;;;;18.51;22.74;101364.69;5035675;28;20049;-61
2022/04/10 16:43:05;;;;;;;5.70;1.40;;;;;;;18.63;24.42;101357.53;5031410;28;20396;-61
2022/04/10 16:45:33;;;;;;;7.60;1.10;;;;;;;18.75;25.52;101357.41;5045096;28;20045;-62
2022/04/10 16:48:01;;;;;;;8.88;1.20;;;;;;;18.77;26.24;101365.25;5032139;28;20064;-60
2022/04/10 16:50:28;;;;;;;3.45;0.93;;;;;;;18.69;26.63;101365.00;5036627;28;20040;-61
2022/04/10 16:52:56;;;;;;;2.75;1.10;;;;;;;18.67;27.21;101373.13;5050229;28;20124;-61
2022/04/10 16:55:23;;;;;;;3.35;1.02;;;;;;;18.72;27.65;101364.78;5047017;28;20057;-63
2022/04/10 16:57:49;;;;;;;6.30;1.20;;;;;;;18.72;27.63;101373.59;5051143;28;20069;-65
2022/04/10 17:00:19;;;;;;;3.35;0.98;;;;;;;18.69;27.94;101367.66;5047935;28;20076;-62
2022/04/10 17:02:49;;;;;;;2.90;1.00;;;;;;;18.52;28.00;101371.72;5050940;28;20041;-62
2022/04/10 17:05:17;;;;;;;1.60;0.80;;;;;;;18.32;27.58;101370.63;5050189;28;20053;-62
2022/04/10 17:07:44;;;;;;;1.67;0.95;;;;;;;18.06;26.95;101378.88;5050478;28;20559;-63
2022/04/10 17:10:13;;;;;;;2.20;0.93;;;;;;;17.93;26.57;101373.66;5050660;28;20085;-62
2022/04/10 17:12:39;;;;;;;2.63;1.20;;;;;;;18.06;26.23;101379.69;5047360;28;20045;-63
2022/04/10 17:15:07;;;;;;;2.63;1.17;;;;;;;18.17;26.02;101386.84;5050388;28;20848;-66
2022/04/10 17:17:34;;;;;;;1.88;1.30;;;;;;;18.19;26.32;101386.72;5050853;28;20049;-64
2022/04/10 17:20:04;;;;;;;2.85;1.35;;;;;;;18.24;26.43;101389.84;5050513;28;20052;-63
2022/04/10 17:22:31;;;;;;;2.03;1.30;;;;;;;18.25;26.97;101388.88;5048021;28;20083;-64
2022/04/10 17:24:59;;;;;;;3.05;1.02;;;;;;;18.26;26.50;101394.06;5050585;28;20040;-64
2022/04/10 17:27:26;;;;;;;2.92;1.20;;;;;;;18.28;26.71;101389.50;5046747;28;20072;-64
2022/04/10 17:29:53;;;;;;;2.88;1.23;;;;;;;18.27;26.32;101405.53;5047939;28;20049;-64
2022/04/10 17:32:19;;;;;;;2.97;1.50;;;;;;;18.26;26.34;101398.56;5050459;28;20049;-63
2022/04/10 17:34:47;;;;;;;2.70;1.13;;;;;;;18.25;26.37;101403.00;5050618;28;20057;-66
2022/04/10 17:37:14;;;;;;;1.45;1.30;;;;;;;18.24;26.62;101397.81;5049959;28;20048;-62
2022/04/10 17:39:41;;;;;;;1.10;0.82;;;;;;;18.15;26.50;101398.56;5050811;28;20109;-61
2022/04/10 17:42:08;;;;;;;1.50;0.70;;;;;;;17.83;26.49;101400.06;5050609;28;20056;-61
2022/04/10 17:44:35;;;;;;;3.33;0.73;;;;;;;17.67;26.24;101408.34;5050006;28;20048;-63
2022/04/10 17:47:02;;;;;;;3.17;0.60;;;;;;;17.52;26.82;101410.38;5050704;28;20041;-61
2022/04/10 17:49:28;;;;;;;2.22;0.70;;;;;;;17.37;27.02;101416.81;5050888;28;20098;-62
2022/04/10 17:51:55;;;;;;;11.20;1.98;;;;;;;17.26;27.15;101412.31;5050249;28;20048;-61
2022/04/10 17:54:22;;;;;;;2.33;1.00;;;;;;;17.17;27.14;101413.84;5047480;28;20133;-60
2022/04/10 17:56:49;;;;;;;2.33;1.48;;;;;;;17.08;27.48;101419.81;5039279;28;20528;-60
2022/04/10 17:59:16;;;;;;;4.82;1.83;;;;;;;17.19;27.27;101419.03;5030336;28;20058;-60
2022/04/10 18:01:43;;;;;;;7.00;1.40;;;;;;;17.51;28.94;101424.59;5030436;28;20057;-61
2022/04/10 18:04:10;;;;;;;10.13;2.10;;;;;;;17.71;29.36;101422.22;5030271;28;20060;-61
2022/04/10 18:06:37;;;;;;;2.85;1.20;;;;;;;17.32;29.44;101424.25;5049987;28;20084;-60
2022/04/10 18:09:05;;;;;;;2.15;1.10;;;;;;;17.09;29.47;101437.41;5050063;28;20040;-60
2022/04/10 18:11:33;;;;;;;2.65;1.17;;;;;;;16.90;28.95;101437.88;5050200;28;20051;-60
2022/04/10 18:14:00;;;;;;;3.67;1.95;;;;;;;16.77;29.08;101436.13;5049978;28;20098;-60
2022/04/10 18:16:27;;;;;;;5.05;2.03;;;;;;;16.75;29.72;101443.34;5049139;28;20045;-60
2022/04/10 18:19:00;;;;;;;11.10;2.90;;;;;;;17.24;31.37;101444.25;5031989;28;20053;-60
2022/04/10 18:21:28;;;;;;;5.85;1.30;;;;;;;17.23;31.83;101445.22;5029740;28;20049;-60
2022/04/10 18:23:55;;;;;;;2.53;1.45;;;;;;;16.98;30.65;101454.13;5029979;28;20414;-61
2022/04/10 18:26:22;;;;;;;3.00;0.93;;;;;;;16.80;29.87;101456.25;5029871;28;20057;-61
2022/04/10 18:28:48;;;;;;;2.58;1.00;;;;;;;16.69;29.43;101459.66;5030017;28;20049;-61
2022/04/10 18:31:16;;;;;;;4.18;1.10;;;;;;;16.62;28.79;101459.25;5029887;28;20092;-61
2022/04/10 18:33:44;;;;;;;2.15;1.13;;;;;;;16.57;28.10;101464.03;5029799;28;20041;-61
2022/04/10 18:36:12;;;;;;;4.25;1.90;;;;;;;16.49;27.87;101471.66;5041770;28;20048;-68
2022/04/10 18:38:39;;;;;;;2.58;1.10;;;;;;;16.39;27.91;101467.97;5049578;28;20084;-60
2022/04/10 18:41:08;;;;;;;2.05;1.45;;;;;;;16.31;27.81;101476.44;5049672;28;20045;-67
2022/04/10 18:43:35;;;;;;;2.55;1.30;;;;;;;16.27;27.58;101477.63;5049556;28;20056;-68
2022/04/10 18:46:04;;;;;;;1.92;1.20;;;;;;;16.21;27.64;101476.22;5049465;28;20068;-66
2022/04/10 18:51:15;;;;;;;4.55;2.03;;;;;;;16.12;27.77;101488.31;5047724;28;20555;-64
2022/04/10 18:53:42;;;;;;;3.58;2.40;;;;;;;16.09;27.36;101490.34;5049127;28;20158;-63
2022/04/10 18:56:09;;;;;;;5.85;2.80;;;;;;;16.02;27.20;101489.88;5048719;28;20049;-63
2022/04/10 18:58:38;;;;;;;5.60;2.15;;;;;;;16.02;27.34;101492.53;5048024;28;20085;-68
2022/04/10 19:01:05;;;;;;;6.95;4.72;;;;;;;16.00;27.45;101497.09;5049098;28;20053;-64
2022/04/10 19:03:32;;;;;;;8.38;5.38;;;;;;;15.93;27.28;101501.94;5048883;28;20096;-63
2022/04/10 19:05:59;;;;;;;7.10;4.60;;;;;;;15.91;27.51;101505.63;5048553;28;20087;-65
2022/04/10 19:08:27;;;;;;;6.13;4.07;;;;;;;15.88;27.43;101501.41;5048938;28;20473;-62
2022/04/10 19:10:55;;;;;;;5.35;3.70;;;;;;;15.86;27.49;101513.03;5048343;28;20060;-61
2022/04/10 19:13:23;;;;;;;17.52;7.15;;;;;;;15.82;27.20;101517.69;5048964;28;20110;-68